Time;durP1;ratioP1;P1;durP2;ratioP2;P2;SDS_P1;SDS_P2;PMS_P1;PMS_P2;Temp;Humidity;BMP_temperature;BMP_pressure;BME280_temperature;BME280_humidity;BME280_pressure;Samples;Min_cycle;Max_cycle;Signal;HPM_P1;HPM_P2
2021/06/23 00:01:54;;;;;;;12.88;5.82;;;;;;;12.89;100.00;102033.69;3571483;39;20445;-62
2021/06/23 00:06:51;;;;;;;17.25;5.85;;;;;;;12.88;100.00;102032.00;3598947;23;20052;-64
2021/06/23 00:09:18;;;;;;;8.75;5.25;;;;;;;12.94;100.00;102039.59;3567441;39;20072;-63
2021/06/23 00:11:49;;;;;;;10.20;5.63;;;;;;;12.89;100.00;102041.81;3647606;23;20052;-64
2021/06/23 00:14:16;;;;;;;11.20;5.50;;;;;;;12.86;100.00;102039.34;3565153;40;20056;-65
2021/06/23 00:16:43;;;;;;;10.75;5.50;;;;;;;12.92;100.00;102040.69;3568718;39;20153;-64
2021/06/23 00:19:10;;;;;;;10.18;5.45;;;;;;;12.83;100.00;102047.69;3569642;40;20075;-64
2021/06/23 00:21:36;;;;;;;9.68;5.88;;;;;;;12.79;100.00;102038.09;3566928;39;20044;-64
2021/06/23 00:24:03;;;;;;;15.70;6.20;;;;;;;12.77;100.00;102038.22;3569567;40;20032;-65
2021/06/23 00:26:33;;;;;;;15.45;5.97;;;;;;;12.66;100.00;102037.38;3570305;39;20386;-64
2021/06/23 00:29:00;;;;;;;13.45;5.93;;;;;;;12.63;100.00;102035.75;3567190;40;20071;-64
2021/06/23 00:31:27;;;;;;;12.73;5.40;;;;;;;12.70;100.00;102046.94;3569305;39;20242;-64
2021/06/23 00:33:54;;;;;;;11.50;5.78;;;;;;;12.75;100.00;102040.22;3568547;40;20330;-65
2021/06/23 00:36:21;;;;;;;13.55;5.53;;;;;;;12.69;100.00;102035.28;3568040;39;20060;-64
2021/06/23 00:38:47;;;;;;;10.27;5.85;;;;;;;12.73;100.00;102035.91;3570196;40;20107;-64
2021/06/23 00:41:17;;;;;;;10.38;5.75;;;;;;;12.78;100.00;102034.56;3566431;39;20052;-64
2021/06/23 00:43:46;;;;;;;14.88;5.20;;;;;;;12.75;100.00;102037.50;3568941;40;20088;-63
2021/06/23 00:46:14;;;;;;;9.63;5.20;;;;;;;12.76;100.00;102031.13;3565768;39;20049;-64
2021/06/23 00:48:41;;;;;;;15.02;4.95;;;;;;;12.78;100.00;102022.91;3571603;39;20048;-64
2021/06/23 00:51:07;;;;;;;10.80;5.10;;;;;;;12.73;100.00;102030.50;3565961;39;20061;-64
2021/06/23 00:53:34;;;;;;;13.75;5.20;;;;;;;12.75;100.00;102033.94;3568732;39;20056;-64
2021/06/23 00:56:01;;;;;;;17.75;5.28;;;;;;;12.68;100.00;102040.81;3567502;39;20055;-63
2021/06/23 00:58:29;;;;;;;11.23;5.00;;;;;;;12.57;100.00;102042.53;3569528;39;20082;-63
2021/06/23 01:00:58;;;;;;;12.40;4.82;;;;;;;12.56;100.00;102035.41;3564104;39;20067;-63
2021/06/23 01:03:25;;;;;;;12.18;4.60;;;;;;;12.60;100.00;102031.47;3566165;39;20495;-63
2021/06/23 01:05:52;;;;;;;10.35;4.57;;;;;;;12.58;100.00;102028.03;3574656;39;20385;-63
2021/06/23 01:08:20;;;;;;;13.43;4.97;;;;;;;12.65;100.00;102025.72;3588298;40;20055;-63
2021/06/23 01:10:46;;;;;;;8.70;4.65;;;;;;;12.61;100.00;102025.06;3571764;40;20051;-63
2021/06/23 01:13:35;;;;;;;12.02;5.28;;;;;;;12.54;100.00;102025.69;3564870;40;20067;-64
2021/06/23 01:16:07;;;;;;;11.40;5.05;;;;;;;12.65;100.00;102016.72;3563270;39;20068;-65
2021/06/23 01:18:36;;;;;;;13.65;4.93;;;;;;;12.72;100.00;102015.25;3570242;40;20062;-64
2021/06/23 01:21:03;;;;;;;9.63;4.63;;;;;;;12.62;100.00;102010.59;3567259;39;20092;-63
2021/06/23 01:23:31;;;;;;;12.93;5.20;;;;;;;12.53;100.00;102005.94;3568578;39;20077;-64
2021/06/23 01:25:58;;;;;;;8.98;4.50;;;;;;;12.56;100.00;102010.25;3565009;40;20744;-64
2021/06/23 01:28:24;;;;;;;11.15;4.30;;;;;;;12.55;100.00;102006.66;3568369;39;20152;-62
2021/06/23 01:30:51;;;;;;;11.82;4.70;;;;;;;12.48;100.00;102001.88;3567216;39;20296;-64
2021/06/23 01:33:18;;;;;;;8.82;4.30;;;;;;;12.46;100.00;102012.78;3564819;39;20050;-63
2021/06/23 01:35:48;;;;;;;6.65;4.68;;;;;;;12.57;100.00;102004.72;3562964;39;20410;-62
2021/06/23 01:38:15;;;;;;;11.00;4.18;;;;;;;12.62;100.00;102007.03;3562696;40;20454;-63
2021/06/23 01:40:43;;;;;;;7.72;4.13;;;;;;;12.61;100.00;102016.97;3562547;40;20056;-63
2021/06/23 01:43:11;;;;;;;7.65;4.32;;;;;;;12.55;100.00;102014.75;3562928;40;20936;-62
2021/06/23 01:45:38;;;;;;;10.25;4.10;;;;;;;12.64;100.00;102025.84;3562710;39;20071;-63
2021/06/23 01:48:06;;;;;;;9.50;4.20;;;;;;;12.53;100.00;102030.25;3564212;39;20481;-64
2021/06/23 01:50:33;;;;;;;7.82;3.83;;;;;;;12.48;100.00;102032.41;3564755;39;20077;-64
2021/06/23 01:53:00;;;;;;;9.77;4.28;;;;;;;12.57;100.00;102031.72;3561819;40;20334;-63
2021/06/23 01:55:30;;;;;;;5.63;3.75;;;;;;;12.67;100.00;102039.94;3559357;39;20091;-64
2021/06/23 01:58:04;;;;;;;6.78;3.80;;;;;;;12.72;100.00;102039.56;3558404;39;20063;-63
2021/06/23 02:00:35;;;;;;;9.35;3.70;;;;;;;12.57;100.00;102042.53;3559948;39;20059;-64
2021/06/23 02:03:10;;;;;;;10.05;4.15;;;;;;;12.70;100.00;102042.41;3563289;40;20087;-64
2021/06/23 02:05:43;;;;;;;12.55;4.15;;;;;;;12.61;100.00;102043.97;3566590;39;20066;-64
2021/06/23 02:08:20;;;;;;;8.38;3.40;;;;;;;12.72;100.00;102042.28;3566101;39;20379;-64
2021/06/23 02:10:58;;;;;;;9.05;4.38;;;;;;;12.68;100.00;102033.56;3564271;40;20075;-63
2021/06/23 02:14:03;;;;;;;10.25;4.30;;;;;;;12.55;100.00;102049.88;3561127;39;20036;-64
2021/06/23 02:16:30;;;;;;;10.80;3.78;;;;;;;12.60;100.00;102050.38;3564726;39;20556;-63
2021/06/23 02:19:04;;;;;;;7.78;3.88;;;;;;;12.60;100.00;102053.09;3566225;39;20413;-64
2021/06/23 02:21:32;;;;;;;12.15;4.43;;;;;;;12.57;100.00;102052.44;3567489;40;20064;-63
2021/06/23 02:24:00;;;;;;;8.43;3.60;;;;;;;12.55;100.00;102049.88;3566336;39;20137;-63
2021/06/23 02:26:27;;;;;;;7.68;4.00;;;;;;;12.66;100.00;102061.69;3566758;39;20661;-63
2021/06/23 02:28:55;;;;;;;13.13;4.80;;;;;;;12.44;100.00;102060.66;3568146;39;20044;-64
2021/06/23 02:31:22;;;;;;;8.50;4.45;;;;;;;12.46;100.00;102071.34;3566497;39;20075;-63
2021/06/23 02:33:49;;;;;;;10.70;4.38;;;;;;;12.34;100.00;102070.47;3567940;39;20080;-64
2021/06/23 02:36:15;;;;;;;10.82;4.88;;;;;;;12.38;100.00;102069.22;3562317;39;20082;-63
2021/06/23 02:38:42;;;;;;;11.40;4.57;;;;;;;12.28;100.00;102069.09;3569934;40;20054;-63
2021/06/23 02:41:09;;;;;;;7.60;4.38;;;;;;;12.24;100.00;102078.38;3567442;39;21993;-64
2021/06/23 02:43:35;;;;;;;12.15;5.07;;;;;;;12.32;100.00;102075.09;3567281;39;20044;-63
2021/06/23 02:46:04;;;;;;;9.15;4.07;;;;;;;12.27;100.00;102073.59;3564846;39;20074;-64
2021/06/23 02:48:30;;;;;;;11.03;5.13;;;;;;;12.26;100.00;102077.31;3567009;39;20063;-64
2021/06/23 02:51:00;;;;;;;8.75;4.50;;;;;;;12.22;100.00;102078.50;3567099;40;20048;-64
2021/06/23 02:53:29;;;;;;;7.53;4.80;;;;;;;12.14;100.00;102094.41;3565559;39;20062;-64
2021/06/23 02:55:56;;;;;;;13.20;5.07;;;;;;;12.18;100.00;102084.25;3565241;40;20479;-62
2021/06/23 02:58:23;;;;;;;11.55;5.03;;;;;;;12.13;100.00;102091.81;3566809;39;20062;-65
2021/06/23 03:00:50;;;;;;;15.85;5.40;;;;;;;12.14;100.00;102090.84;3564982;39;20595;-64
2021/06/23 03:03:19;;;;;;;10.23;4.45;;;;;;;12.16;100.00;102087.06;3565833;39;20356;-65
2021/06/23 03:05:45;;;;;;;8.80;4.50;;;;;;;12.25;100.00;102080.97;3571882;39;20446;-64
2021/06/23 03:08:12;;;;;;;9.80;4.68;;;;;;;12.31;100.00;102082.34;3579981;39;20036;-65
2021/06/23 03:10:38;;;;;;;10.35;4.70;;;;;;;12.33;100.00;102083.06;3568705;39;20399;-64
2021/06/23 03:13:05;;;;;;;12.07;5.30;;;;;;;12.31;100.00;102084.16;3565055;39;20326;-64
2021/06/23 03:15:32;;;;;;;9.48;4.40;;;;;;;12.18;100.00;102090.50;3570276;39;20499;-64
2021/06/23 03:18:02;;;;;;;7.70;4.15;;;;;;;12.18;100.00;102095.06;3568861;40;20511;-65
2021/06/23 03:20:30;;;;;;;9.40;4.88;;;;;;;12.15;100.00;102092.59;3568543;40;20059;-64
2021/06/23 03:22:56;;;;;;;10.77;4.45;;;;;;;12.13;100.00;102095.41;3570785;39;20082;-65
2021/06/23 03:25:23;;;;;;;9.95;5.10;;;;;;;12.09;100.00;102091.22;3570568;39;20087;-65
2021/06/23 03:27:54;;;;;;;10.20;4.85;;;;;;;12.15;100.00;102095.28;3569262;39;20072;-64
2021/06/23 03:30:22;;;;;;;11.90;4.78;;;;;;;12.04;100.00;102082.59;3568425;39;20058;-65
2021/06/23 03:32:50;;;;;;;10.48;4.80;;;;;;;11.99;100.00;102084.78;3569416;39;20056;-65
2021/06/23 03:35:17;;;;;;;9.30;4.43;;;;;;;11.99;100.00;102085.63;3568986;39;20056;-64
2021/06/23 03:37:45;;;;;;;10.32;5.10;;;;;;;12.13;100.00;102094.53;3570719;39;20063;-65
2021/06/23 03:40:12;;;;;;;8.20;4.40;;;;;;;12.01;100.00;102093.63;3568052;39;20048;-65
2021/06/23 03:42:39;;;;;;;9.02;4.68;;;;;;;11.99;100.00;102090.19;3568485;39;20686;-65
2021/06/23 03:45:07;;;;;;;8.38;4.15;;;;;;;12.09;100.00;102088.50;3571197;39;20068;-66
2021/06/23 03:47:34;;;;;;;8.13;4.38;;;;;;;12.11;100.00;102089.25;3569542;39;20064;-65
2021/06/23 03:50:00;;;;;;;6.55;3.75;;;;;;;12.12;100.00;102090.09;3569846;39;20551;-64
2021/06/23 03:52:27;;;;;;;8.57;4.35;;;;;;;12.11;100.00;102093.78;3567067;39;20690;-67
2021/06/23 03:54:55;;;;;;;12.23;4.70;;;;;;;12.11;100.00;102094.66;3570067;40;20067;-65
2021/06/23 03:57:21;;;;;;;10.60;5.00;;;;;;;12.06;100.00;102088.75;3569392;39;20040;-66
2021/06/23 03:59:48;;;;;;;13.32;4.35;;;;;;;12.06;100.00;102096.84;3568751;39;20342;-66
2021/06/23 04:02:14;;;;;;;10.05;4.07;;;;;;;12.06;100.00;102095.00;3636715;23;20055;-66
2021/06/23 04:04:41;;;;;;;11.13;4.78;;;;;;;12.09;100.00;102088.50;3547550;40;20676;-66
2021/06/23 04:07:07;;;;;;;7.57;4.65;;;;;;;12.09;100.00;102092.06;3549809;40;20065;-65
2021/06/23 04:09:34;;;;;;;10.77;4.85;;;;;;;11.98;100.00;102083.06;3547276;40;20064;-66
2021/06/23 04:12:01;;;;;;;10.50;3.97;;;;;;;12.06;100.00;102096.84;3546543;40;20424;-66
2021/06/23 04:14:28;;;;;;;9.10;4.47;;;;;;;12.15;100.00;102085.34;3546980;40;20041;-67
2021/06/23 04:16:55;;;;;;;7.60;3.92;;;;;;;12.24;100.00;102078.38;3548604;40;20123;-67
2021/06/23 04:19:22;;;;;;;9.68;4.35;;;;;;;12.26;100.00;102068.31;3546114;40;20076;-66
2021/06/23 04:21:49;;;;;;;11.30;4.65;;;;;;;12.36;100.00;102084.69;3549319;40;20358;-66
2021/06/23 04:24:15;;;;;;;8.30;4.00;;;;;;;12.44;100.00;102085.81;3548507;40;20363;-67
2021/06/23 04:26:43;;;;;;;8.80;3.80;;;;;;;12.53;100.00;102084.25;3550027;40;20057;-67
2021/06/23 04:32:09;;;;;;;11.88;3.83;;;;;;;12.69;100.00;102083.03;3597445;23;20121;-65
2021/06/23 04:34:35;;;;;;;8.45;3.70;;;;;;;12.74;100.00;102091.66;3564095;39;20091;-65
2021/06/23 04:37:02;;;;;;;9.77;4.30;;;;;;;12.86;100.00;102085.28;3566447;40;20058;-66
2021/06/23 04:39:28;;;;;;;11.98;4.68;;;;;;;13.01;100.00;102082.34;3566620;39;20056;-65
2021/06/23 04:41:54;;;;;;;9.85;3.85;;;;;;;13.19;100.00;102091.72;3566565;39;20524;-66
2021/06/23 04:44:21;;;;;;;6.82;3.40;;;;;;;13.13;100.00;102093.06;3566064;39;20060;-66
2021/06/23 04:46:47;;;;;;;7.28;3.28;;;;;;;13.07;100.00;102098.06;3569512;40;20098;-65
2021/06/23 04:49:16;;;;;;;9.55;3.58;;;;;;;13.03;100.00;102092.06;3564619;40;20059;-65
2021/06/23 04:51:42;;;;;;;9.77;3.47;;;;;;;13.04;100.00;102101.03;3566467;40;20055;-65
2021/06/23 04:54:09;;;;;;;8.32;3.60;;;;;;;13.13;100.00;102100.28;3570877;40;20066;-67
2021/06/23 04:56:35;;;;;;;10.73;3.55;;;;;;;13.03;100.00;102099.28;3570568;40;20034;-66
2021/06/23 04:59:02;;;;;;;7.25;4.10;;;;;;;13.12;100.00;102095.88;3563975;40;20436;-67
2021/06/23 05:01:28;;;;;;;12.27;3.88;;;;;;;13.13;100.00;102095.75;3568656;39;20605;-66
2021/06/23 05:03:55;;;;;;;8.18;3.63;;;;;;;13.12;100.00;102104.84;3572408;40;20084;-65
2021/06/23 05:06:23;;;;;;;7.72;3.55;;;;;;;13.28;100.00;102111.72;3567813;40;20358;-67
2021/06/23 05:08:49;;;;;;;8.98;3.22;;;;;;;13.39;100.00;102114.44;3570887;40;20078;-66
2021/06/23 05:11:16;;;;;;;8.48;3.53;;;;;;;13.43;100.00;102120.50;3566752;39;20334;-66
2021/06/23 05:13:42;;;;;;;7.13;3.40;;;;;;;13.52;100.00;102114.31;3568244;40;20048;-65
2021/06/23 05:16:09;;;;;;;10.50;3.83;;;;;;;13.43;100.00;102115.94;3569215;40;20047;-67
2021/06/23 05:18:36;;;;;;;9.43;4.03;;;;;;;13.45;100.00;102113.09;3565319;39;20090;-65
2021/06/23 05:21:04;;;;;;;8.00;3.88;;;;;;;13.39;100.00;102119.00;3565201;40;20059;-65
2021/06/23 05:23:31;;;;;;;5.25;3.17;;;;;;;13.56;100.00;102110.38;3565716;39;20055;-64
2021/06/23 05:25:58;;;;;;;8.23;3.50;;;;;;;13.64;100.00;102107.91;3568550;40;20051;-67
2021/06/23 05:28:24;;;;;;;10.25;3.88;;;;;;;13.74;100.00;102109.88;3564384;40;20044;-66
2021/06/23 05:30:51;;;;;;;13.68;3.85;;;;;;;13.78;100.00;102119.44;3561812;39;20064;-66
2021/06/23 05:33:17;;;;;;;10.63;3.78;;;;;;;13.60;100.00;102114.56;3557870;40;20048;-66
2021/06/23 05:35:44;;;;;;;11.05;3.35;;;;;;;13.64;100.00;102112.47;3557035;40;20316;-66
2021/06/23 05:38:10;;;;;;;10.98;4.45;;;;;;;13.76;100.00;102110.59;3555950;40;20551;-66
2021/06/23 05:40:39;;;;;;;10.23;3.70;;;;;;;13.89;100.00;102122.13;3557167;40;20444;-65
2021/06/23 05:43:05;;;;;;;9.48;4.05;;;;;;;13.82;100.00;102116.38;3556081;40;20100;-66
2021/06/23 05:45:32;;;;;;;10.40;3.45;;;;;;;13.83;100.00;102115.38;3556137;40;20048;-66
2021/06/23 05:47:59;;;;;;;9.25;3.72;;;;;;;13.82;100.00;102116.38;3556896;40;20053;-66
2021/06/23 05:50:25;;;;;;;7.60;3.40;;;;;;;13.70;100.00;102111.09;3555483;40;20067;-65
2021/06/23 05:52:51;;;;;;;8.50;3.42;;;;;;;13.58;100.00;102113.81;3556413;40;20619;-65
2021/06/23 05:55:21;;;;;;;8.00;3.50;;;;;;;13.65;100.00;102112.34;3558656;40;20049;-66
2021/06/23 05:57:51;;;;;;;8.60;3.92;;;;;;;13.76;100.00;102111.44;3557322;40;20045;-65
2021/06/23 06:00:19;;;;;;;10.73;3.90;;;;;;;13.75;100.00;102109.75;3555091;40;20048;-67
2021/06/23 06:02:46;;;;;;;9.88;3.88;;;;;;;13.85;100.00;102109.81;3576217;40;20036;-66
2021/06/23 06:05:13;;;;;;;10.38;3.15;;;;;;;14.07;100.00;102113.47;3576672;40;20046;-65
2021/06/23 06:07:40;;;;;;;10.75;3.63;;;;;;;14.04;100.00;102121.84;3577576;40;20057;-64
2021/06/23 06:10:08;;;;;;;10.50;3.83;;;;;;;13.88;100.00;102125.81;3575825;40;20070;-64
2021/06/23 06:12:34;;;;;;;11.95;3.10;;;;;;;13.90;100.00;102133.78;3577579;40;20060;-65
2021/06/23 06:15:02;;;;;;;9.38;3.53;;;;;;;14.09;100.00;102133.13;3575779;40;20094;-64
2021/06/23 06:17:29;;;;;;;7.10;3.10;;;;;;;14.17;100.00;102141.50;3577411;40;20049;-66
2021/06/23 06:19:55;;;;;;;11.75;3.35;;;;;;;14.17;100.00;102136.06;3577226;40;20053;-65
2021/06/23 06:22:24;;;;;;;7.78;3.13;;;;;;;14.07;100.00;102144.09;3575139;40;20362;-66
2021/06/23 06:24:50;;;;;;;11.55;3.05;;;;;;;14.07;100.00;102137.81;3576507;40;20044;-65
2021/06/23 06:27:17;;;;;;;12.20;3.65;;;;;;;14.23;100.00;102129.28;3577186;40;20053;-65
2021/06/23 06:29:43;;;;;;;10.00;3.25;;;;;;;14.44;100.00;102137.44;3577078;40;20037;-66
2021/06/23 06:32:11;;;;;;;8.18;3.60;;;;;;;14.19;100.00;102134.09;3579333;39;20063;-65
2021/06/23 06:34:37;;;;;;;12.20;3.40;;;;;;;14.45;100.00;102133.75;3590313;39;20044;-66
2021/06/23 06:37:04;;;;;;;6.68;3.13;;;;;;;14.67;100.00;102139.06;3589011;39;20269;-65
2021/06/23 06:39:31;;;;;;;8.00;3.70;;;;;;;14.76;100.00;102142.00;3589306;40;20055;-65
2021/06/23 06:41:57;;;;;;;10.65;3.22;;;;;;;14.78;100.00;102146.31;3588160;40;20037;-63
2021/06/23 06:44:28;;;;;;;11.52;3.20;;;;;;;14.82;100.00;102146.88;3586883;40;20700;-64
2021/06/23 06:46:54;;;;;;;9.13;3.60;;;;;;;14.95;100.00;102143.97;3587369;40;20055;-64
2021/06/23 06:49:22;;;;;;;10.40;3.45;;;;;;;15.09;100.00;102142.75;3589397;40;20117;-65
2021/06/23 06:51:48;;;;;;;8.45;3.20;;;;;;;15.15;100.00;102140.38;3586282;39;20088;-63
2021/06/23 06:54:15;;;;;;;7.40;2.95;;;;;;;15.27;100.00;102146.56;3589811;40;20047;-65
2021/06/23 06:56:41;;;;;;;7.18;3.05;;;;;;;15.56;100.00;102145.81;3590624;40;20353;-65
2021/06/23 06:59:08;;;;;;;8.93;2.97;;;;;;;15.44;100.00;102142.34;3589918;40;20339;-65
2021/06/23 07:01:35;;;;;;;7.25;2.67;;;;;;;15.65;100.00;102150.44;3588983;39;20125;-65
2021/06/23 07:04:01;;;;;;;10.65;3.38;;;;;;;15.59;100.00;102146.41;3589989;39;20032;-65
2021/06/23 07:06:30;;;;;;;8.13;3.38;;;;;;;15.74;100.00;102160.47;3591338;39;20052;-64
2021/06/23 07:08:56;;;;;;;6.57;3.30;;;;;;;16.04;100.00;102158.69;3590425;40;20392;-64
2021/06/23 07:11:23;;;;;;;8.07;2.67;;;;;;;15.99;100.00;102155.56;3590152;40;20668;-65
2021/06/23 07:13:49;;;;;;;8.98;2.80;;;;;;;16.15;100.00;102157.75;3589856;40;20051;-64
2021/06/23 07:16:16;;;;;;;5.55;2.60;;;;;;;15.94;100.00;102161.41;3589407;39;20048;-64
2021/06/23 07:18:45;;;;;;;7.95;2.67;;;;;;;15.85;100.00;102161.38;3591527;40;20043;-64
2021/06/23 07:21:16;;;;;;;7.40;2.40;;;;;;;15.94;100.00;102161.41;3589377;40;20061;-65
2021/06/23 07:23:44;;;;;;;12.38;3.20;;;;;;;15.60;100.00;102152.69;3590529;40;20381;-66
2021/06/23 07:29:08;;;;;;;9.40;2.97;;;;;;;16.28;100.00;102143.84;3607213;23;20048;-64
2021/06/23 07:31:46;;;;;;;10.20;3.00;;;;;;;16.40;100.00;102145.44;3581519;40;20039;-65
2021/06/23 07:37:04;;;;;;;7.90;3.03;;;;;;;16.65;100.00;102143.13;3551445;40;20404;-65
2021/06/23 07:39:33;;;;;;;5.45;2.58;;;;;;;16.87;100.00;102136.56;3580294;40;20075;-64
2021/06/23 07:42:00;;;;;;;6.75;2.30;;;;;;;17.18;100.00;102144.47;3579989;40;20048;-64
2021/06/23 07:44:30;;;;;;;8.00;2.60;;;;;;;16.83;100.00;102146.00;3579891;40;20086;-64
2021/06/23 07:46:58;;;;;;;7.35;2.85;;;;;;;17.09;100.00;102139.94;3581498;40;20048;-63
2021/06/23 07:49:29;;;;;;;6.33;2.30;;;;;;;17.50;100.00;102135.94;3579494;40;20381;-65
2021/06/23 07:51:59;;;;;;;8.25;2.28;;;;;;;17.45;100.00;102143.66;3581744;40;20037;-64
2021/06/23 07:54:36;;;;;;;9.65;2.42;;;;;;;17.03;100.00;102152.25;3579782;40;20048;-64
2021/06/23 08:08:13;;;;;;;10.43;2.53;;;;;;;17.57;100.00;102149.78;3581961;40;20063;-65
2021/06/23 08:10:44;;;;;;;7.93;2.53;;;;;;;17.54;100.00;102143.78;3581446;40;20053;-66
2021/06/23 08:13:13;;;;;;;7.63;2.72;;;;;;;17.39;100.00;102157.88;3581959;40;20089;-64
2021/06/23 08:15:42;;;;;;;5.05;1.88;;;;;;;17.40;100.00;102154.16;3580803;40;20045;-65
2021/06/23 08:18:08;;;;;;;8.23;2.85;;;;;;;16.99;100.00;102154.44;3580905;40;20057;-64
2021/06/23 08:20:35;;;;;;;10.90;2.55;;;;;;;17.10;100.00;102150.66;3581367;40;20055;-65
2021/06/23 08:23:03;;;;;;;8.43;2.45;;;;;;;17.80;100.00;102157.53;3580866;40;20052;-65
2021/06/23 08:25:29;;;;;;;6.70;2.90;;;;;;;18.21;100.00;102152.56;3580248;40;20315;-65
2021/06/23 08:27:56;;;;;;;7.28;2.42;;;;;;;18.08;100.00;102158.41;3581042;40;20428;-65
2021/06/23 08:30:25;;;;;;;6.00;2.20;;;;;;;18.03;100.00;102163.44;3580667;40;20061;-65
2021/06/23 08:32:51;;;;;;;8.13;2.28;;;;;;;17.60;100.00;102159.50;3581554;40;20052;-65
2021/06/23 08:35:19;;;;;;;9.82;2.25;;;;;;;17.37;100.00;102159.03;3579991;40;20116;-65
2021/06/23 08:37:45;;;;;;;11.48;3.20;;;;;;;17.42;100.00;102160.31;3581527;40;20077;-65
2021/06/23 08:40:14;;;;;;;5.47;2.30;;;;;;;17.24;100.00;102160.22;3581141;40;20061;-64
2021/06/23 08:42:42;;;;;;;9.43;2.70;;;;;;;17.60;100.00;102156.78;3581105;40;20388;-64
2021/06/23 08:45:11;;;;;;;10.80;2.88;;;;;;;18.01;100.00;102160.88;3580430;40;20036;-64
2021/06/23 08:47:40;;;;;;;;;;;;;;;18.44;100.00;102155.69;3581666;40;20045;-64
2021/06/23 08:50:08;;;;;;;8.23;2.20;;;;;;;18.15;100.00;102164.97;3578638;40;20207;-65
2021/06/23 08:52:35;;;;;;;6.57;2.60;;;;;;;18.61;100.00;102159.44;3580622;40;20040;-63
2021/06/23 08:55:02;;;;;;;4.40;2.00;;;;;;;19.08;100.00;102155.56;3579361;40;20084;-64
2021/06/23 08:57:29;;;;;;;5.30;2.00;;;;;;;19.35;100.00;102153.66;3580489;40;20049;-64
2021/06/23 08:59:55;;;;;;;8.38;2.47;;;;;;;19.28;100.00;102155.31;3579585;40;20045;-64
2021/06/23 09:04:57;;;;;;;4.88;2.28;;;;;;;19.16;100.00;102161.03;3593697;23;20431;-63
2021/06/23 09:07:37;;;;;;;5.90;2.30;;;;;;;18.89;100.00;102167.53;3588082;39;20305;-65
2021/06/23 09:10:06;;;;;;;8.20;2.53;;;;;;;19.01;100.00;102160.78;3589807;39;20095;-64
2021/06/23 09:12:33;;;;;;;6.80;2.05;;;;;;;19.04;100.00;102155.00;3590742;40;20056;-65
2021/06/23 09:15:00;;;;;;;12.23;2.50;;;;;;;18.75;100.00;102160.72;3591523;39;20130;-65
2021/06/23 09:17:27;;;;;;;7.82;2.67;;;;;;;18.66;100.00;102161.69;3590536;39;20048;-64
2021/06/23 09:19:56;;;;;;;4.43;2.10;;;;;;;18.66;100.00;102161.69;3591127;39;20059;-64
2021/06/23 09:22:34;;;;;;;8.10;2.50;;;;;;;18.25;100.00;102164.88;3590131;39;20100;-64
2021/06/23 09:25:03;;;;;;;10.07;2.78;;;;;;;18.29;100.00;102159.97;3592199;40;20126;-63
2021/06/23 09:27:31;;;;;;;8.18;2.70;;;;;;;18.47;100.00;102165.44;3591917;39;20103;-65
2021/06/23 09:30:24;;;;;;;6.97;2.60;;;;;;;18.58;100.00;102167.94;3590792;39;20060;-65
2021/06/23 09:33:06;;;;;;;10.95;2.67;;;;;;;18.43;100.00;102178.50;3590522;40;20428;-65
2021/06/23 09:35:34;;;;;;;5.35;2.20;;;;;;;18.42;100.00;102175.94;3588771;39;20056;-65
2021/06/23 09:38:00;;;;;;;7.15;2.40;;;;;;;18.12;100.00;102170.69;3591280;39;20036;-63
2021/06/23 09:40:29;;;;;;;6.97;2.83;;;;;;;17.82;100.00;102169.16;3590964;39;20084;-64
2021/06/23 09:43:01;;;;;;;9.43;3.05;;;;;;;17.83;100.00;102170.88;3591095;39;20051;-65
2021/06/23 09:45:30;;;;;;;10.77;2.90;;;;;;;18.15;100.00;102175.88;3590570;39;20055;-64
2021/06/23 09:47:59;;;;;;;8.60;2.45;;;;;;;18.26;100.00;102169.31;3589638;40;20752;-64
2021/06/23 09:50:28;;;;;;;8.20;2.90;;;;;;;18.41;100.00;102164.19;3589170;40;20059;-65
2021/06/23 09:52:57;;;;;;;;;;;;;;;18.74;100.00;102169.91;3591241;39;20040;-63
2021/06/23 09:55:34;;;;;;;10.07;2.90;;;;;;;18.84;100.00;102165.22;3589403;39;20001;-64
2021/06/23 09:58:09;;;;;;;8.07;2.78;;;;;;;18.95;100.00;102168.72;3590721;39;20047;-63
2021/06/23 10:00:58;;;;;;;6.50;2.50;;;;;;;19.42;100.00;102165.63;3583727;39;20044;-64
2021/06/23 10:03:24;;;;;;;8.73;2.75;;;;;;;18.93;100.00;102168.88;3589938;39;20326;-64
2021/06/23 10:05:51;;;;;;;12.43;2.67;;;;;;;19.19;100.00;102168.91;3591304;40;20055;-64
2021/06/23 10:08:25;;;;;;;6.13;2.70;;;;;;;19.23;100.00;102169.47;3590373;39;20044;-64
2021/06/23 10:10:52;;;;;;;7.18;2.15;;;;;;;19.22;100.00;102168.56;3589649;39;20058;-65
2021/06/23 10:13:19;;;;;;;6.07;2.00;;;;;;;19.13;100.00;102175.00;3590608;39;20064;-65
2021/06/23 10:15:48;;;;;;;6.95;2.17;;;;;;;19.20;100.00;102170.63;3589034;40;20413;-64
2021/06/23 10:18:15;;;;;;;4.82;2.05;;;;;;;19.10;100.00;102183.53;3588477;39;20044;-65
2021/06/23 10:20:42;;;;;;;4.50;2.10;;;;;;;19.03;100.00;102179.72;3588280;40;20396;-65
2021/06/23 10:23:08;;;;;;;6.68;2.38;;;;;;;19.58;100.00;102168.44;3587347;39;20315;-64
2021/06/23 10:25:36;;;;;;;9.45;2.13;;;;;;;19.91;99.38;102165.84;3587755;39;20068;-66
2021/06/23 10:28:03;;;;;;;9.23;2.23;;;;;;;19.44;94.19;102171.78;3587095;40;20048;-64
2021/06/23 10:30:31;;;;;;;7.38;2.28;;;;;;;19.84;100.00;102175.72;3587537;40;20383;-65
2021/06/23 10:32:58;;;;;;;5.15;2.13;;;;;;;19.70;91.91;102165.41;3588083;40;20048;-64
2021/06/23 10:35:25;;;;;;;5.82;2.17;;;;;;;19.89;100.00;102167.91;3586276;40;20072;-63
2021/06/23 10:37:54;;;;;;;5.13;2.13;;;;;;;19.57;100.00;102172.19;3588727;39;20396;-64
2021/06/23 10:40:21;;;;;;;8.82;2.42;;;;;;;19.95;100.00;102175.44;3588239;39;20044;-65
2021/06/23 10:42:49;;;;;;;8.02;2.38;;;;;;;20.44;100.00;102162.91;3590155;39;20050;-65
2021/06/23 10:45:16;;;;;;;4.28;1.92;;;;;;;20.24;100.00;102168.69;3588193;39;20061;-64
2021/06/23 10:47:45;;;;;;;5.43;2.20;;;;;;;20.18;95.66;102163.03;3589901;39;20067;-64
2021/06/23 10:50:31;;;;;;;4.60;1.88;;;;;;;19.98;100.00;102167.91;3588802;39;20052;-64
2021/06/23 10:52:58;;;;;;;6.35;2.10;;;;;;;20.43;94.74;102161.16;3589929;40;20141;-64
2021/06/23 10:55:46;;;;;;;9.18;1.77;;;;;;;20.51;100.00;102163.94;3588426;40;20497;-64
2021/06/23 10:58:14;;;;;;;9.60;2.20;;;;;;;20.74;93.16;102166.00;3588367;40;20051;-65
2021/06/23 11:00:46;;;;;;;5.40;2.20;;;;;;;20.79;90.98;102171.81;3589271;40;20051;-65
2021/06/23 11:03:14;;;;;;;10.30;2.30;;;;;;;20.22;99.41;102167.13;3586244;40;20048;-65
2021/06/23 11:05:43;;;;;;;3.60;1.98;;;;;;;20.17;97.55;102167.66;3578801;40;20052;-64
2021/06/23 11:08:23;;;;;;;;;;;;;;;20.60;90.46;102162.06;3579040;40;20137;-65
2021/06/23 11:10:50;;;;;;;5.90;2.58;;;;;;;20.54;98.38;102158.13;3578503;40;20289;-65
2021/06/23 11:13:21;;;;;;;8.35;2.65;;;;;;;19.97;100.00;102152.56;3580357;40;20055;-63
2021/06/23 11:15:49;;;;;;;5.68;2.10;;;;;;;20.21;100.00;102155.31;3580238;40;20048;-65
2021/06/23 11:18:28;;;;;;;5.57;2.53;;;;;;;20.02;100.00;102163.84;3572970;40;20327;-65
2021/06/23 11:20:56;;;;;;;9.75;2.38;;;;;;;19.81;100.00;102159.69;3574503;40;20338;-65
2021/06/23 11:23:46;;;;;;;7.57;3.00;;;;;;;20.51;100.00;102161.19;3579213;40;20058;-64
2021/06/23 11:26:46;;;;;;;9.93;3.00;;;;;;;20.19;100.00;102160.13;3581417;40;20059;-65
2021/06/23 11:29:28;;;;;;;5.53;3.17;;;;;;;19.35;100.00;102159.13;3573025;40;20123;-65
2021/06/23 11:32:01;;;;;;;9.10;3.38;;;;;;;19.05;100.00;102162.19;3581486;40;20075;-65
2021/06/23 11:34:54;;;;;;;7.13;3.22;;;;;;;19.06;100.00;102168.47;3581123;40;20376;-64
2021/06/23 11:37:23;;;;;;;9.68;3.20;;;;;;;19.43;100.00;102161.88;3572448;40;20045;-65
2021/06/23 11:39:50;;;;;;;6.78;3.00;;;;;;;18.99;100.00;102173.75;3579662;40;20041;-63
2021/06/23 11:42:17;;;;;;;6.88;3.05;;;;;;;19.21;100.00;102169.63;3580608;40;20068;-64
2021/06/23 11:44:46;;;;;;;7.38;2.65;;;;;;;18.82;100.00;102172.72;3581835;40;20057;-64
2021/06/23 11:47:12;;;;;;;14.83;3.13;;;;;;;18.91;100.00;102166.31;3581321;40;20076;-65